Time;durP1;ratioP1;P1;durP2;ratioP2;P2;SDS_P1;SDS_P2;PMS_P1;PMS_P2;Temp;Humidity;BMP_temperature;BMP_pressure;BME280_temperature;BME280_humidity;BME280_pressure;Samples;Min_cycle;Max_cycle;Signal;HPM_P1;HPM_P2
2022/03/26 00:01:27;;;;;;;193.73;77.45;;;;;;;5.89;60.48;101174.66;5128841;27;20030;-33
2022/03/26 00:03:53;;;;;;;44.08;23.50;;;;;;;5.89;60.09;101141.06;5128992;27;20035;-30
2022/03/26 00:06:18;;;;;;;33.50;19.38;;;;;;;5.88;59.76;101151.81;5129215;27;20039;-30
2022/03/26 00:08:44;;;;;;;33.70;18.40;;;;;;;5.91;58.89;101165.56;5110563;27;20031;-33
2022/03/26 00:11:09;;;;;;;29.83;17.45;;;;;;;5.93;58.12;101155.63;5110123;27;20023;-32
2022/03/26 00:13:35;;;;;;;43.58;22.30;;;;;;;5.90;57.51;101157.75;5110083;27;20023;-29
2022/03/26 00:16:01;;;;;;;44.22;26.27;;;;;;;6.13;57.04;101169.44;5128801;27;20033;-31
2022/03/26 00:18:27;;;;;;;29.20;18.38;;;;;;;5.64;56.95;101158.69;5128774;27;20031;-31
2022/03/26 00:20:52;;;;;;;32.63;20.05;;;;;;;5.56;58.46;101145.44;5128947;27;20035;-33
2022/03/26 00:23:18;;;;;;;39.78;22.52;;;;;;;5.38;59.81;101169.31;5110486;28;20023;-29
2022/03/26 00:25:44;;;;;;;35.35;20.25;;;;;;;5.89;58.24;101178.13;5128832;27;20035;-30
2022/03/26 00:28:09;;;;;;;34.03;20.50;;;;;;;6.00;57.13;101150.53;5110109;28;20027;-34
2022/03/26 00:30:35;;;;;;;40.25;23.98;;;;;;;5.69;57.98;101172.25;5128464;28;20027;-32
2022/03/26 00:33:01;;;;;;;34.53;21.58;;;;;;;5.75;58.19;101152.28;5109560;27;20079;-30
2022/03/26 00:35:27;;;;;;;29.80;17.67;;;;;;;6.06;57.51;101175.56;5110188;28;20558;-29
2022/03/26 00:37:53;;;;;;;23.48;15.02;;;;;;;5.99;57.88;101175.38;5110142;28;20046;-31
2022/03/26 00:40:18;;;;;;;26.58;14.48;;;;;;;5.93;58.46;101160.94;5110011;28;20080;-33
2022/03/26 00:42:44;;;;;;;23.92;14.32;;;;;;;5.89;59.39;101164.88;5110105;28;20031;-30
2022/03/26 00:45:10;;;;;;;23.23;14.80;;;;;;;5.95;59.27;101174.88;5128416;27;20073;-32
2022/03/26 00:47:36;;;;;;;27.45;14.60;;;;;;;5.66;59.19;101153.22;5109776;28;20019;-29
2022/03/26 00:50:02;;;;;;;23.70;13.77;;;;;;;5.60;59.39;101171.41;5128719;27;20031;-28
2022/03/26 00:52:27;;;;;;;23.35;13.70;;;;;;;5.54;59.48;101172.03;5110024;28;20062;-30
2022/03/26 00:54:53;;;;;;;24.10;14.40;;;;;;;5.13;61.70;101179.75;5128449;28;20029;-28
2022/03/26 00:57:18;;;;;;;23.83;14.52;;;;;;;4.74;61.34;101179.28;5128417;27;20446;-28
2022/03/26 00:59:44;;;;;;;26.65;13.10;;;;;;;3.69;64.84;101207.13;5109707;28;20054;-28
2022/03/26 01:02:10;;;;;;;25.80;13.15;;;;;;;3.32;66.25;101208.78;5128177;28;20023;-27
2022/03/26 01:04:35;;;;;;;24.98;14.57;;;;;;;3.15;67.26;101193.72;5128652;28;20053;-31
2022/03/26 01:07:01;;;;;;;25.88;14.90;;;;;;;2.90;67.79;101214.44;5109890;28;20083;-30
2022/03/26 01:09:26;;;;;;;24.60;14.38;;;;;;;3.01;67.92;101206.34;5128492;27;20011;-28
2022/03/26 01:11:52;;;;;;;25.30;14.23;;;;;;;3.31;67.10;101212.41;5131969;27;20030;-28
2022/03/26 01:14:17;;;;;;;24.70;14.43;;;;;;;3.33;65.90;101194.63;5132428;27;20034;-28
2022/03/26 01:16:42;;;;;;;27.67;13.95;;;;;;;3.73;65.58;101211.13;5132258;27;20460;-28
2022/03/26 01:19:08;;;;;;;23.88;14.65;;;;;;;3.48;65.92;101217.91;5131995;27;20075;-28
2022/03/26 01:21:34;;;;;;;24.52;14.65;;;;;;;3.71;65.94;101215.72;5132119;27;20059;-28
2022/03/26 01:23:59;;;;;;;25.10;14.52;;;;;;;3.83;66.25;101218.00;5132228;27;20027;-31
2022/03/26 01:26:25;;;;;;;27.05;14.23;;;;;;;4.07;64.99;101227.22;5131945;27;20031;-28
2022/03/26 01:28:50;;;;;;;22.60;13.55;;;;;;;4.06;64.74;101227.34;5131741;27;20042;-28
2022/03/26 01:31:19;;;;;;;24.65;13.93;;;;;;;3.59;65.63;101200.06;5131710;27;20402;-31
2022/03/26 01:33:49;;;;;;;21.90;13.35;;;;;;;3.83;65.31;101222.47;5131964;27;20061;-28
2022/03/26 01:36:15;;;;;;;25.65;13.75;;;;;;;3.73;64.82;101224.31;5113404;27;20452;-31
2022/03/26 01:38:40;;;;;;;22.33;13.48;;;;;;;3.94;63.82;101209.09;5113414;27;20089;-29
2022/03/26 01:41:06;;;;;;;23.23;14.20;;;;;;;3.95;63.60;101226.56;5131588;27;20498;-28
2022/03/26 01:43:31;;;;;;;20.48;13.30;;;;;;;3.73;64.63;101216.41;5131733;27;20114;-31
2022/03/26 01:45:57;;;;;;;28.80;15.98;;;;;;;3.72;65.17;101226.13;5112979;27;20019;-29
2022/03/26 01:48:22;;;;;;;29.48;15.27;;;;;;;4.08;63.60;101244.69;5131842;27;20057;-32
2022/03/26 01:50:48;;;;;;;44.25;24.85;;;;;;;4.18;63.55;101242.00;5131518;27;20069;-33
2022/03/26 01:53:13;;;;;;;31.88;17.70;;;;;;;4.26;62.84;101234.16;5131467;27;20035;-30
2022/03/26 01:55:39;;;;;;;26.38;15.63;;;;;;;4.17;62.29;101235.06;5131627;27;20098;-29
2022/03/26 01:58:05;;;;;;;25.27;14.13;;;;;;;4.07;63.73;101239.59;5131129;27;20121;-31
2022/03/26 02:00:30;;;;;;;27.42;14.85;;;;;;;3.44;65.14;101235.81;5131282;27;20059;-28
2022/03/26 02:02:56;;;;;;;23.55;13.45;;;;;;;3.69;64.36;101249.31;5131483;27;20027;-28
2022/03/26 02:05:22;;;;;;;25.13;14.05;;;;;;;3.91;63.61;101241.03;5112956;27;20023;-33
2022/03/26 02:07:50;;;;;;;24.98;14.85;;;;;;;3.82;63.78;101247.19;5113077;27;20091;-35
2022/03/26 02:10:17;;;;;;;24.13;15.10;;;;;;;3.41;65.09;101244.00;5112661;27;20027;-31
2022/03/26 02:12:46;;;;;;;34.70;19.05;;;;;;;3.11;64.35;101245.06;5112695;27;20065;-28
2022/03/26 02:15:13;;;;;;;23.65;15.02;;;;;;;3.26;65.23;101216.44;5112665;27;20039;-33
2022/03/26 02:17:39;;;;;;;24.15;15.70;;;;;;;3.28;66.37;101232.94;5095685;27;20411;-28
2022/03/26 02:20:07;;;;;;;25.15;14.75;;;;;;;3.54;64.71;101243.69;5131047;27;20035;-32
2022/03/26 02:22:33;;;;;;;24.80;14.45;;;;;;;3.54;64.25;101248.97;5112019;27;20414;-28
2022/03/26 02:24:59;;;;;;;24.20;14.95;;;;;;;3.63;63.60;101222.53;5130560;27;20031;-28
2022/03/26 02:27:26;;;;;;;24.63;15.05;;;;;;;3.64;63.19;101236.56;5130638;27;20494;-31
2022/03/26 02:29:52;;;;;;;24.95;15.00;;;;;;;2.92;64.63;101252.00;5112438;27;20396;-31
2022/03/26 02:32:19;;;;;;;24.35;14.48;;;;;;;2.45;67.82;101246.56;5130828;27;20080;-28
2022/03/26 02:34:45;;;;;;;29.50;15.55;;;;;;;2.24;69.45;101249.31;5112198;27;20031;-29
2022/03/26 02:37:10;;;;;;;25.92;14.25;;;;;;;1.89;69.81;101250.59;5130471;27;20087;-31
2022/03/26 02:39:36;;;;;;;25.08;14.02;;;;;;;1.55;69.89;101248.25;5130422;27;20474;-31
2022/03/26 02:42:01;;;;;;;23.98;15.25;;;;;;;1.37;72.03;101253.25;5130258;27;20030;-27
2022/03/26 02:44:27;;;;;;;24.38;14.40;;;;;;;1.43;71.57;101233.53;5112218;27;20030;-28
2022/03/26 02:46:53;;;;;;;26.73;15.20;;;;;;;1.71;71.98;101237.22;5111780;27;20113;-30
2022/03/26 02:49:19;;;;;;;24.33;14.43;;;;;;;1.81;72.18;101263.56;5130558;27;20038;-28
2022/03/26 02:51:44;;;;;;;27.92;16.30;;;;;;;1.90;71.56;101265.41;5094829;27;20023;-29
2022/03/26 02:54:18;;;;;;;24.45;15.93;;;;;;;2.03;71.07;101253.84;5111965;27;20414;-30
2022/03/26 02:56:54;;;;;;;25.65;16.30;;;;;;;2.75;68.10;101258.78;5111613;27;20027;-28
2022/03/26 02:59:21;;;;;;;25.88;15.70;;;;;;;3.19;65.61;101253.91;5130612;27;20100;-28
2022/03/26 03:01:47;;;;;;;29.00;16.08;;;;;;;2.99;66.12;101234.66;5111584;27;20023;-31
2022/03/26 03:04:12;;;;;;;28.05;15.82;;;;;;;2.49;68.31;101257.66;5130155;27;20417;-29
2022/03/26 03:06:38;;;;;;;23.75;15.18;;;;;;;2.54;68.02;101266.81;5130097;27;20023;-30
2022/03/26 03:09:05;;;;;;;22.73;15.25;;;;;;;2.07;69.04;101260.50;5129634;27;20031;-28
2022/03/26 03:11:32;;;;;;;26.50;15.00;;;;;;;1.91;69.25;101267.06;5111712;27;20106;-28
2022/03/26 03:13:57;;;;;;;24.63;15.73;;;;;;;1.93;69.18;101266.94;5111292;27;20035;-30
2022/03/26 03:16:23;;;;;;;25.48;15.18;;;;;;;1.54;70.86;101259.72;5111500;27;20084;-28
2022/03/26 03:18:50;;;;;;;29.05;16.73;;;;;;;1.82;70.19;101275.78;5110829;27;20035;-28
2022/03/26 03:21:15;;;;;;;45.95;17.42;;;;;;;1.75;70.41;101285.97;5111395;27;20034;-28
2022/03/26 03:23:41;;;;;;;30.23;14.43;;;;;;;1.67;70.70;101271.81;5111012;27;20027;-35
2022/03/26 03:26:06;;;;;;;25.98;15.88;;;;;;;1.88;70.02;101279.66;5129820;27;20026;-28
2022/03/26 03:28:32;;;;;;;29.95;14.40;;;;;;;1.84;68.72;101265.94;5129790;27;20414;-29
2022/03/26 03:30:57;;;;;;;25.95;14.80;;;;;;;1.99;68.47;101272.50;5111031;27;20095;-28
2022/03/26 03:33:23;;;;;;;27.60;15.43;;;;;;;2.36;66.72;101285.06;5129130;27;20058;-28
2022/03/26 03:35:49;;;;;;;25.63;14.23;;;;;;;2.33;67.41;101284.50;5129502;27;20078;-28
2022/03/26 03:38:15;;;;;;;29.55;15.73;;;;;;;2.14;67.38;101285.28;5129385;27;20497;-28
2022/03/26 03:40:40;;;;;;;30.73;16.00;;;;;;;2.22;68.04;101290.72;5129682;27;20027;-29
2022/03/26 03:43:06;;;;;;;30.92;16.17;;;;;;;2.56;65.98;101264.06;5129375;27;20027;-28
2022/03/26 03:45:31;;;;;;;45.85;25.67;;;;;;;2.46;65.75;101289.53;5129479;27;20030;-28
2022/03/26 03:47:57;;;;;;;55.17;26.67;;;;;;;2.03;67.89;101283.59;5129495;27;20038;-28
2022/03/26 03:50:23;;;;;;;56.50;27.77;;;;;;;2.06;68.47;101293.00;5110739;27;20388;-31
2022/03/26 03:52:48;;;;;;;41.67;21.27;;;;;;;1.70;69.25;101280.28;5129034;27;20387;-28
2022/03/26 03:55:14;;;;;;;42.83;23.85;;;;;;;1.88;68.75;101296.28;5129477;27;20046;-28
2022/03/26 03:57:41;;;;;;;48.30;23.77;;;;;;;1.81;68.95;101295.13;5129071;27;20035;-29
2022/03/26 04:00:07;;;;;;;30.92;17.42;;;;;;;1.71;69.75;101296.88;5110798;27;20118;-27
2022/03/26 04:02:34;;;;;;;32.83;19.30;;;;;;;1.75;68.85;101288.59;5129081;27;20031;-31
2022/03/26 04:05:00;;;;;;;36.22;18.98;;;;;;;2.05;68.66;101309.78;5110336;27;20083;-29
2022/03/26 04:07:25;;;;;;;36.13;18.65;;;;;;;1.92;68.50;101302.94;5128837;27;20031;-30
2022/03/26 04:09:51;;;;;;;30.45;17.50;;;;;;;1.79;68.49;101292.63;5129050;27;20023;-28
2022/03/26 04:12:16;;;;;;;33.67;19.65;;;;;;;1.96;69.38;101309.63;5129023;27;20106;-29
2022/03/26 04:14:43;;;;;;;33.45;18.92;;;;;;;2.10;67.78;101299.69;5129017;27;20505;-28
2022/03/26 04:17:10;;;;;;;35.80;19.58;;;;;;;2.07;68.08;101308.69;5110370;27;20103;-28
2022/03/26 04:19:36;;;;;;;41.38;21.67;;;;;;;1.95;68.45;101307.94;5110321;27;20019;-28
2022/03/26 04:22:01;;;;;;;35.33;19.98;;;;;;;2.15;66.28;101297.50;5128717;27;20052;-28
2022/03/26 04:24:27;;;;;;;38.08;19.48;;;;;;;2.01;67.79;101322.38;5110324;28;20019;-30
2022/03/26 04:26:53;;;;;;;82.10;52.25;;;;;;;1.83;67.88;101295.84;5128805;27;20100;-31
2022/03/26 04:29:19;;;;;;;35.00;18.67;;;;;;;1.70;68.75;101314.47;5128742;27;20027;-29
2022/03/26 04:31:45;;;;;;;26.90;16.00;;;;;;;1.56;69.66;101299.03;5109262;28;20552;-27
2022/03/26 04:34:11;;;;;;;101.18;62.53;;;;;;;1.54;70.05;101304.41;5127242;28;20077;-28
2022/03/26 04:36:36;;;;;;;179.88;102.53;;;;;;;1.62;70.12;101326.59;5128007;27;20031;-30
2022/03/26 04:39:02;;;;;;;93.93;57.92;;;;;;;1.56;69.76;101334.03;5127458;28;20031;-28
2022/03/26 04:41:28;;;;;;;48.85;29.08;;;;;;;1.44;69.71;101329.81;5128532;28;20027;-27
2022/03/26 04:43:53;;;;;;;43.38;26.65;;;;;;;1.40;69.50;101305.56;5128797;27;20788;-30
2022/03/26 04:46:19;;;;;;;51.63;31.15;;;;;;;1.59;68.87;101306.63;5131102;27;20027;-29
2022/03/26 04:48:46;;;;;;;32.35;17.98;;;;;;;2.09;67.72;101312.00;5132842;27;20802;-28
2022/03/26 04:51:12;;;;;;;30.02;17.85;;;;;;;2.37;66.68;101334.13;5132148;27;20030;-29
2022/03/26 04:53:38;;;;;;;32.45;19.13;;;;;;;2.32;67.17;101338.97;5114398;27;20023;-28
2022/03/26 04:56:03;;;;;;;30.92;19.08;;;;;;;2.15;67.88;101344.88;5132877;27;20601;-30
2022/03/26 04:58:29;;;;;;;33.35;19.10;;;;;;;1.99;68.26;101325.13;5132644;27;20050;-33
2022/03/26 05:00:54;;;;;;;31.70;18.25;;;;;;;1.96;68.54;101320.13;5132380;27;20119;-28
2022/03/26 05:03:20;;;;;;;29.35;17.15;;;;;;;2.34;67.53;101347.56;5132418;27;20039;-30
2022/03/26 05:05:45;;;;;;;36.40;20.13;;;;;;;2.28;68.10;101353.34;5132307;27;20035;-30
2022/03/26 05:08:11;;;;;;;42.03;26.15;;;;;;;2.56;67.41;101349.16;5113948;27;20467;-31
2022/03/26 05:10:36;;;;;;;30.15;18.00;;;;;;;2.81;65.62;101349.59;5132382;27;20043;-29
2022/03/26 05:13:02;;;;;;;31.60;17.92;;;;;;;3.13;64.67;101346.72;5132068;27;20019;-28
2022/03/26 05:15:27;;;;;;;30.10;16.45;;;;;;;3.37;63.89;101342.81;5132392;27;20019;-29
2022/03/26 05:17:54;;;;;;;29.95;15.73;;;;;;;3.39;63.63;101359.31;5132239;27;20028;-27
2022/03/26 05:20:20;;;;;;;37.17;20.05;;;;;;;3.47;63.41;101343.63;5113650;27;20565;-30
2022/03/26 05:22:47;;;;;;;40.45;20.58;;;;;;;3.14;63.77;101340.47;5113889;27;20122;-28
2022/03/26 05:25:15;;;;;;;40.08;20.13;;;;;;;3.34;63.80;101353.66;5113671;27;20051;-28
2022/03/26 05:28:04;;;;;;;48.33;24.30;;;;;;;3.60;63.83;101367.09;5113854;27;20117;-32
2022/03/26 05:30:29;;;;;;;40.97;20.85;;;;;;;3.31;65.07;101343.38;5111890;27;20149;-29
2022/03/26 05:32:55;;;;;;;54.05;26.50;;;;;;;3.73;63.07;101362.34;5131475;27;20146;-30
2022/03/26 05:35:21;;;;;;;39.72;22.35;;;;;;;3.74;63.62;101365.81;5131668;27;20034;-30
2022/03/26 05:37:49;;;;;;;39.35;21.08;;;;;;;3.54;63.50;101357.13;5113372;27;20023;-30
2022/03/26 05:40:16;;;;;;;32.08;17.92;;;;;;;3.78;62.61;101362.75;5113300;27;20066;-28
2022/03/26 05:42:42;;;;;;;30.52;18.05;;;;;;;3.58;63.35;101355.84;5131910;27;20035;-28
2022/03/26 05:45:09;;;;;;;37.65;19.35;;;;;;;3.96;62.39;101360.22;5113033;27;20031;-30
2022/03/26 05:47:35;;;;;;;37.95;21.42;;;;;;;3.98;62.97;101371.47;5131686;27;20069;-29
2022/03/26 05:50:03;;;;;;;39.03;21.40;;;;;;;4.10;63.51;101360.72;5131771;27;20058;-33
2022/03/26 05:52:28;;;;;;;37.53;21.33;;;;;;;4.42;62.17;101384.91;5113309;27;20060;-29
2022/03/26 05:54:54;;;;;;;41.35;22.80;;;;;;;4.30;63.08;101391.34;5131460;27;20035;-28
2022/03/26 05:57:19;;;;;;;37.83;22.15;;;;;;;4.60;62.20;101376.22;5130986;27;20015;-31
2022/03/26 05:59:45;;;;;;;40.53;23.63;;;;;;;4.87;60.88;101379.81;5131356;27;20027;-32
2022/03/26 06:02:12;;;;;;;32.25;20.17;;;;;;;5.07;61.60;101388.41;5131583;27;20023;-31
2022/03/26 06:04:38;;;;;;;36.55;22.98;;;;;;;5.06;62.74;101384.94;5113056;27;20034;-33
2022/03/26 06:07:04;;;;;;;37.35;22.30;;;;;;;5.31;61.33;101388.66;5112621;27;20031;-28
2022/03/26 06:09:29;;;;;;;38.55;22.50;;;;;;;5.52;61.79;101396.28;5131431;27;20031;-28
2022/03/26 06:11:55;;;;;;;33.22;21.48;;;;;;;5.58;61.85;101385.09;5131143;27;20034;-28
2022/03/26 06:14:21;;;;;;;33.38;19.48;;;;;;;5.81;61.72;101361.56;5112471;27;20129;-34
2022/03/26 06:16:47;;;;;;;33.80;20.65;;;;;;;5.85;62.17;101372.69;5112139;27;20406;-34
2022/03/26 06:19:14;;;;;;;31.30;19.83;;;;;;;6.03;63.24;101388.56;5131077;27;20035;-34
2022/03/26 06:21:39;;;;;;;32.13;19.50;;;;;;;5.93;62.43;101374.56;5112505;27;20031;-30
2022/03/26 06:24:05;;;;;;;33.25;19.88;;;;;;;5.98;63.00;101389.00;5130865;27;20114;-28
2022/03/26 06:26:31;;;;;;;32.45;21.10;;;;;;;6.32;61.52;101374.16;5130919;27;20027;-28
2022/03/26 06:28:57;;;;;;;31.13;20.00;;;;;;;6.59;61.33;101379.22;5112110;27;20042;-31
2022/03/26 06:31:23;;;;;;;30.13;18.85;;;;;;;6.72;61.04;101384.06;5130784;27;20464;-30
2022/03/26 06:33:49;;;;;;;29.98;17.85;;;;;;;6.70;62.04;101391.38;5112047;27;20059;-31
2022/03/26 06:36:14;;;;;;;28.73;18.55;;;;;;;7.05;60.34;101410.69;5112150;27;20140;-27
2022/03/26 06:38:41;;;;;;;30.75;18.98;;;;;;;6.94;60.00;101395.06;5130524;27;20589;-34
2022/03/26 06:41:09;;;;;;;29.45;17.50;;;;;;;7.11;60.44;101399.41;5111870;27;20019;-31
2022/03/26 06:43:38;;;;;;;32.00;18.95;;;;;;;7.40;59.96;101414.03;5130688;27;20035;-28
2022/03/26 06:46:04;;;;;;;28.90;18.63;;;;;;;7.47;59.26;101408.91;5112055;27;20042;-34
2022/03/26 06:48:30;;;;;;;29.40;18.50;;;;;;;7.76;58.47;101413.69;5130489;27;20031;-28
2022/03/26 06:50:56;;;;;;;27.35;18.30;;;;;;;7.85;58.21;101418.03;5111532;27;20058;-30
2022/03/26 06:53:22;;;;;;;31.90;18.45;;;;;;;7.93;57.90;101404.72;5111761;27;20034;-37
2022/03/26 06:55:47;;;;;;;31.90;18.52;;;;;;;7.90;58.22;101397.06;5130302;27;20466;-28
2022/03/26 06:58:13;;;;;;;29.45;18.20;;;;;;;7.87;58.33;101396.56;5111558;27;20065;-28
2022/03/26 07:00:38;;;;;;;30.58;20.13;;;;;;;8.08;58.77;101414.66;5130221;27;20019;-31
2022/03/26 07:03:04;;;;;;;27.73;16.88;;;;;;;8.34;57.97;101407.28;5130137;27;20384;-33
2022/03/26 07:05:29;;;;;;;28.42;18.77;;;;;;;8.33;59.01;101421.56;5130280;27;20402;-29
2022/03/26 07:07:54;;;;;;;29.63;19.35;;;;;;;8.09;58.77;101408.34;5128955;27;20403;-28
2022/03/26 07:10:20;;;;;;;25.73;17.40;;;;;;;8.80;58.02;101428.72;5129985;27;20493;-30
2022/03/26 07:12:46;;;;;;;28.10;18.63;;;;;;;8.65;57.32;101409.19;5111192;27;20027;-30
2022/03/26 07:15:12;;;;;;;29.63;18.98;;;;;;;8.90;57.46;101422.38;5111328;27;20026;-28
2022/03/26 07:17:42;;;;;;;27.35;18.73;;;;;;;8.82;56.59;101431.22;5129702;27;20035;-31
2022/03/26 07:20:08;;;;;;;29.30;19.17;;;;;;;9.29;56.45;101435.59;5111305;27;20031;-30
2022/03/26 07:22:37;;;;;;;27.90;19.38;;;;;;;9.14;54.95;101440.03;5110716;27;20023;-29
2022/03/26 07:25:04;;;;;;;27.05;17.92;;;;;;;9.20;55.21;101436.66;5111001;27;20793;-29
2022/03/26 07:27:34;;;;;;;27.58;17.80;;;;;;;9.22;54.73;101422.19;5110966;27;20126;-29
2022/03/26 07:30:00;;;;;;;28.10;18.00;;;;;;;9.30;55.19;101434.59;5111451;27;20070;-30
2022/03/26 07:32:26;;;;;;;28.70;17.92;;;;;;;9.40;53.67;101427.22;5129671;27;20054;-29
2022/03/26 07:34:52;;;;;;;28.13;18.00;;;;;;;9.47;54.33;101435.31;5111025;27;20027;-29
2022/03/26 07:37:18;;;;;;;26.25;18.58;;;;;;;9.81;53.25;101405.56;5111026;27;20618;-28
2022/03/26 07:39:43;;;;;;;27.52;18.60;;;;;;;10.04;52.58;101432.16;5129483;27;20110;-33
2022/03/26 07:42:46;;;;;;;28.50;18.50;;;;;;;10.35;52.61;101430.38;5110867;27;20038;-28
2022/03/26 07:45:11;;;;;;;28.90;18.05;;;;;;;10.16;52.15;101429.06;5129223;27;20027;-30
2022/03/26 07:47:37;;;;;;;30.08;18.00;;;;;;;10.19;52.86;101431.34;5110749;27;20031;-29
2022/03/26 07:50:04;;;;;;;24.02;17.65;;;;;;;10.80;51.03;101428.50;5129157;27;20059;-30
2022/03/26 07:52:29;;;;;;;26.98;17.55;;;;;;;10.70;50.42;101420.78;5110599;27;20577;-30
2022/03/26 07:54:55;;;;;;;25.48;17.17;;;;;;;10.78;49.82;101415.34;5128966;27;20122;-31
2022/03/26 07:57:20;;;;;;;28.98;16.33;;;;;;;10.85;49.31;101408.25;5129409;27;20015;-31
2022/03/26 07:59:46;;;;;;;27.05;16.20;;;;;;;11.30;49.50;101423.28;5128925;27;20029;-28
2022/03/26 08:02:11;;;;;;;26.13;16.67;;;;;;;11.33;49.14;101425.59;5128991;27;20020;-29
2022/03/26 08:04:37;;;;;;;28.23;17.55;;;;;;;10.97;48.78;101397.06;5129068;27;20110;-32
2022/03/26 08:07:03;;;;;;;21.80;15.93;;;;;;;11.35;46.84;101396.84;5109963;27;20023;-28
2022/03/26 08:09:28;;;;;;;23.05;16.02;;;;;;;11.45;47.91;101413.38;5129276;27;20031;-31
2022/03/26 08:11:54;;;;;;;24.67;16.10;;;;;;;11.64;47.42;101393.19;5129054;27;20027;-30
2022/03/26 08:14:19;;;;;;;23.40;14.82;;;;;;;11.80;46.43;101392.06;5129056;27;20027;-29
2022/03/26 08:16:45;;;;;;;23.52;14.02;;;;;;;11.76;45.52;101414.88;5128725;27;20027;-30
2022/03/26 08:19:10;;;;;;;51.95;39.03;;;;;;;11.81;45.32;101396.38;5128292;27;20046;-32
2022/03/26 08:21:36;;;;;;;21.30;12.75;;;;;;;11.98;44.65;101413.00;5128375;27;20030;-31
2022/03/26 08:24:04;;;;;;;24.05;14.32;;;;;;;12.09;44.37;101417.81;5128978;27;20046;-30
2022/03/26 08:26:30;;;;;;;25.20;13.60;;;;;;;12.26;44.06;101388.91;5110106;27;20062;-29
2022/03/26 08:28:58;;;;;;;21.92;13.60;;;;;;;12.63;41.58;101411.72;5128530;27;20059;-28
2022/03/26 08:31:26;;;;;;;18.02;12.50;;;;;;;12.92;39.17;101414.31;5110095;27;20023;-29
2022/03/26 08:33:52;;;;;;;;;;;;;;;13.34;39.54;101407.00;5110531;28;20154;-30
2022/03/26 08:36:17;;;;;;;17.88;11.90;;;;;;;12.93;40.85;101378.47;5128602;28;20390;-29
2022/03/26 08:38:47;;;;;;;44.83;23.40;;;;;;;13.24;39.87;101408.22;5128787;28;20023;-29
2022/03/26 08:41:14;;;;;;;25.95;15.57;;;;;;;13.00;39.64;101387.34;5110292;28;20027;-28
2022/03/26 08:43:39;;;;;;;19.80;12.48;;;;;;;13.39;39.70;101404.56;5110138;28;20031;-30
2022/03/26 08:46:05;;;;;;;17.55;11.13;;;;;;;13.40;38.25;101395.47;5110033;28;20023;-32
2022/03/26 08:48:31;;;;;;;16.95;11.73;;;;;;;13.41;38.81;101391.78;5128624;27;20037;-29
2022/03/26 08:50:57;;;;;;;18.88;12.68;;;;;;;14.02;39.81;101396.09;5128469;28;20046;-32
2022/03/26 08:53:23;;;;;;;20.08;12.95;;;;;;;14.30;38.14;101385.06;5128496;28;20023;-29
2022/03/26 08:55:49;;;;;;;20.73;12.27;;;;;;;14.05;37.41;101372.31;5128519;28;20607;-30
2022/03/26 08:58:17;;;;;;;21.90;13.10;;;;;;;13.92;39.35;101368.88;5128416;27;20030;-28
2022/03/26 09:00:43;;;;;;;20.63;13.57;;;;;;;13.90;38.87;101358.34;5109716;28;20027;-30
2022/03/26 09:03:09;;;;;;;18.92;13.35;;;;;;;14.53;37.99;101365.78;5109387;28;20645;-30
2022/03/26 09:05:34;;;;;;;21.48;12.57;;;;;;;14.66;38.29;101359.56;5128246;27;20042;-33
2022/03/26 09:07:59;;;;;;;21.13;13.95;;;;;;;14.86;38.08;101362.97;5128680;28;20028;-28
2022/03/26 09:10:25;;;;;;;25.58;14.60;;;;;;;15.00;37.42;101342.22;5109950;28;20204;-36
2022/03/26 09:12:52;;;;;;;21.35;14.05;;;;;;;15.07;37.92;101352.91;5128633;27;20094;-29
2022/03/26 09:15:17;;;;;;;22.30;13.13;;;;;;;15.27;36.81;101337.47;5128181;27;20031;-32
2022/03/26 09:17:43;;;;;;;20.70;13.52;;;;;;;15.53;36.94;101346.38;5128319;28;20015;-30
2022/03/26 09:20:09;;;;;;;22.42;13.90;;;;;;;15.43;37.22;101340.66;5128209;27;20126;-28
2022/03/26 09:22:35;;;;;;;18.60;12.73;;;;;;;15.46;36.03;101345.59;5109547;28;20034;-35
2022/03/26 09:25:02;;;;;;;17.85;12.40;;;;;;;15.25;33.78;101341.41;5109703;28;20031;-31
2022/03/26 09:27:27;;;;;;;18.17;11.90;;;;;;;15.43;35.88;101346.84;5109143;28;20027;-30
2022/03/26 09:29:53;;;;;;;19.55;12.15;;;;;;;14.99;33.41;101332.50;5128223;27;20038;-30
2022/03/26 09:32:18;;;;;;;18.60;11.43;;;;;;;15.00;32.73;101325.28;5130061;27;20043;-30
2022/03/26 09:34:44;;;;;;;19.80;13.07;;;;;;;15.64;32.04;101331.38;5113738;27;20058;-30
2022/03/26 09:37:10;;;;;;;19.90;12.07;;;;;;;15.84;31.29;101325.84;5131699;27;20471;-28
2022/03/26 09:39:35;;;;;;;17.50;11.88;;;;;;;15.92;33.21;101322.03;5113333;27;20054;-28
2022/03/26 09:42:03;;;;;;;19.92;12.90;;;;;;;15.83;33.21;101326.84;5131889;27;20063;-35
2022/03/26 09:44:32;;;;;;;22.42;12.15;;;;;;;15.82;32.71;101311.78;5113004;27;20027;-29
2022/03/26 09:46:58;;;;;;;22.27;12.43;;;;;;;15.48;33.22;101322.81;5112686;27;20629;-38
2022/03/26 09:49:23;;;;;;;20.48;11.60;;;;;;;15.81;33.51;101310.13;5131642;27;20023;-29
2022/03/26 09:51:54;;;;;;;21.45;13.35;;;;;;;16.09;33.19;101317.69;5132071;27;20391;-35
2022/03/26 09:54:24;;;;;;;48.40;26.00;;;;;;;15.99;32.56;101312.81;5131601;27;20023;-29
2022/03/26 09:56:50;;;;;;;31.60;17.52;;;;;;;16.55;32.34;101310.91;5112727;27;20042;-29
2022/03/26 09:59:23;;;;;;;23.60;11.68;;;;;;;17.24;29.82;101308.66;5131246;27;20031;-29
2022/03/26 10:01:49;;;;;;;17.83;10.57;;;;;;;17.36;28.14;101305.13;5131543;27;20038;-30
2022/03/26 10:04:17;;;;;;;19.70;11.68;;;;;;;17.21;30.61;101306.41;5112923;27;20051;-28
2022/03/26 10:06:47;;;;;;;18.13;12.00;;;;;;;16.64;29.24;101298.75;5112947;27;20060;-29
2022/03/26 10:09:12;;;;;;;21.15;13.13;;;;;;;17.25;29.42;101283.31;5112760;27;20019;-29
2022/03/26 10:11:40;;;;;;;20.30;11.55;;;;;;;17.47;30.27;101296.25;5131331;27;20053;-29
2022/03/26 10:14:05;;;;;;;20.63;13.27;;;;;;;17.53;30.14;101264.78;5131098;27;20554;-28
2022/03/26 10:16:31;;;;;;;20.92;12.70;;;;;;;17.54;28.27;101278.06;5131188;27;20027;-30
2022/03/26 10:18:59;;;;;;;19.27;12.32;;;;;;;17.67;29.46;101279.66;5130889;27;20553;-29
2022/03/26 10:21:24;;;;;;;21.15;12.43;;;;;;;18.03;29.19;101275.06;5112549;27;20031;-29
2022/03/26 10:23:51;;;;;;;17.90;11.02;;;;;;;18.26;26.12;101277.69;5130939;27;20027;-30
2022/03/26 10:26:19;;;;;;;16.48;11.63;;;;;;;18.15;26.92;101254.25;5112198;27;20034;-31
2022/03/26 10:28:51;;;;;;;;;;;;;;;18.30;25.34;101278.03;5112766;27;20054;-29
2022/03/26 10:34:07;;;;;;;16.48;10.50;;;;;;;17.08;26.28;101263.53;5130651;27;20061;-30
2022/03/26 10:36:44;;;;;;;16.77;9.45;;;;;;;17.62;28.17;101258.81;5130787;27;20031;-31
2022/03/26 10:39:20;;;;;;;17.27;9.95;;;;;;;17.62;26.20;101252.59;5111904;27;20023;-32
2022/03/26 10:41:47;;;;;;;34.38;15.23;;;;;;;17.43;26.58;101246.53;5112235;27;20043;-29
2022/03/26 10:44:16;;;;;;;16.50;9.82;;;;;;;17.92;26.50;101233.56;5111707;27;20041;-31
2022/03/26 10:46:46;;;;;;;14.48;9.93;;;;;;;18.33;25.42;101231.66;5111507;27;20088;-29
2022/03/26 10:49:13;;;;;;;13.73;8.75;;;;;;;18.70;23.63;101242.03;5111493;27;20475;-28
2022/03/26 10:51:41;;;;;;;16.08;9.73;;;;;;;18.35;24.13;101247.59;5129966;27;20027;-28
2022/03/26 10:54:11;;;;;;;15.73;9.75;;;;;;;18.33;24.97;101228.13;5111795;27;20049;-31
2022/03/26 10:56:38;;;;;;;17.20;10.15;;;;;;;18.59;24.52;101237.50;5111721;27;20106;-37
2022/03/26 10:59:04;;;;;;;14.43;9.60;;;;;;;19.40;26.11;101237.19;5111347;27;20031;-30
2022/03/26 11:01:30;;;;;;;15.80;9.32;;;;;;;18.77;26.52;101207.53;5130002;27;20068;-31
2022/03/26 11:03:56;;;;;;;14.45;9.48;;;;;;;19.44;25.36;101238.31;5130033;27;20412;-31
2022/03/26 11:06:26;;;;;;;13.07;9.20;;;;;;;20.31;23.13;101233.16;5111180;27;20054;-36
2022/03/26 11:08:59;;;;;;;16.15;9.30;;;;;;;20.55;23.22;101225.53;5129844;27;20042;-29
2022/03/26 11:11:26;;;;;;;15.15;9.35;;;;;;;20.75;23.11;101224.94;5111468;27;20031;-29
2022/03/26 11:13:54;;;;;;;13.60;8.20;;;;;;;21.21;23.07;101201.69;5111528;27;20023;-30